createdAt,value
2023-01-20T00:03:22.756Z,81.10
2023-01-20T00:08:25.511Z,79.90
2023-01-20T00:13:28.230Z,79.42
2023-01-20T00:18:33.350Z,80.22
2023-01-20T00:23:36.202Z,78.59
2023-01-20T00:28:39.032Z,79.94
2023-01-20T00:33:43.724Z,80.74
2023-01-20T00:38:46.851Z,80.56
2023-01-20T00:43:49.959Z,79.88
2023-01-20T00:48:54.286Z,79.76
2023-01-20T00:53:57.631Z,80.45
2023-01-20T00:59:00.392Z,78.77
2023-01-20T01:04:04.541Z,78.74
2023-01-20T01:09:07.410Z,77.65
2023-01-20T01:14:10.572Z,77.51
2023-01-20T01:19:14.701Z,77.41
2023-01-20T01:24:17.473Z,77.63
2023-01-20T01:29:20.229Z,78.48
2023-01-20T01:34:24.646Z,79.65
2023-01-20T01:39:28.581Z,80.03
2023-01-20T01:44:32.862Z,79.01
2023-01-20T01:49:37.041Z,78.89
2023-01-20T01:54:45.488Z,78.58
2023-01-20T01:59:48.286Z,78.26
2023-01-20T02:04:52.452Z,77.98
2023-01-20T02:09:55.337Z,77.79
2023-01-20T02:15:00.685Z,77.48
2023-01-20T02:20:25.960Z,76.86
2023-01-20T02:25:45.660Z,77.00
2023-01-20T02:31:20.039Z,77.69
2023-01-20T02:36:30.366Z,77.57
2023-01-20T02:41:39.892Z,77.99
2023-01-20T02:46:52.686Z,78.32
2023-01-20T02:52:02.900Z,77.92
2023-01-20T02:57:09.572Z,77.69
2023-01-20T03:02:16.295Z,78.24
2023-01-20T03:07:24.386Z,78.25
2023-01-20T03:12:32.269Z,78.03
2023-01-20T03:17:35.845Z,78.33
2023-01-20T03:22:40.021Z,78.13
2023-01-20T03:27:43.442Z,78.50
2023-01-20T03:32:49.285Z,78.43
2023-01-20T03:37:53.424Z,78.49
2023-01-20T03:43:02.832Z,78.61
2023-01-20T03:48:14.035Z,78.69
2023-01-20T03:53:28.884Z,78.76
2023-01-20T03:58:36.251Z,79.01
2023-01-20T04:03:41.212Z,79.07
2023-01-20T04:08:49.104Z,78.87
2023-01-20T04:13:52.228Z,79.36
2023-01-20T04:18:55.383Z,79.24
2023-01-20T04:24:04.566Z,79.02
2023-01-20T04:29:12.669Z,79.39
2023-01-20T04:34:16.396Z,80.00
2023-01-20T04:39:20.533Z,78.85
2023-01-20T04:44:23.362Z,78.92
2023-01-20T04:49:26.111Z,78.59
2023-01-20T04:54:30.342Z,79.00
2023-01-20T04:59:33.139Z,78.89
2023-01-20T05:04:37.888Z,78.90
2023-01-20T05:09:42.043Z,79.27
2023-01-20T05:14:44.823Z,78.60
2023-01-20T05:19:47.668Z,78.32
2023-01-20T05:24:51.793Z,78.70
2023-01-20T05:29:54.689Z,78.29
2023-01-20T05:34:57.453Z,78.59
2023-01-20T05:40:01.634Z,78.38
2023-01-20T05:45:05.020Z,78.22
2023-01-20T05:50:11.356Z,77.71
2023-01-20T05:55:15.955Z,77.30
2023-01-20T06:00:20.031Z,76.34
2023-01-20T06:05:23.181Z,76.34
2023-01-20T06:10:28.097Z,76.07
2023-01-20T06:15:30.863Z,75.76
2023-01-20T06:20:33.602Z,76.11
2023-01-20T06:25:37.817Z,75.76
2023-01-20T06:30:43.091Z,75.46
2023-01-20T06:35:45.905Z,75.70
2023-01-20T06:40:50.025Z,76.10
2023-01-20T06:45:52.780Z,75.97
2023-01-20T06:50:55.673Z,76.10
2023-01-20T06:56:01.287Z,76.27
2023-01-20T07:01:09.767Z,76.43
2023-01-20T07:06:18.167Z,75.93
2023-01-20T07:11:22.406Z,76.26
2023-01-20T07:16:25.534Z,76.64
2023-01-20T07:21:29.027Z,76.65
2023-01-20T07:26:33.525Z,76.36
2023-01-20T07:31:36.501Z,76.13
2023-01-20T07:36:39.247Z,76.67
2023-01-20T07:41:45.549Z,76.18
2023-01-20T07:46:48.658Z,76.17
2023-01-20T07:51:51.413Z,76.13
2023-01-20T07:56:55.625Z,76.55
2023-01-20T08:01:58.373Z,75.96
2023-01-20T08:07:01.137Z,76.05
2023-01-20T08:12:05.905Z,75.67
2023-01-20T08:17:08.853Z,75.68
2023-01-20T08:22:11.653Z,75.80
2023-01-20T08:27:15.858Z,75.94
2023-01-20T08:32:18.669Z,75.79
2023-01-20T08:37:21.629Z,76.31
2023-01-20T08:42:25.730Z,75.92
2023-01-20T08:47:28.613Z,75.96
2023-01-20T08:52:31.470Z,76.10
2023-01-20T08:57:35.593Z,76.22
2023-01-20T09:02:38.987Z,76.14
2023-01-20T09:07:41.781Z,75.79
2023-01-20T09:12:46.459Z,75.21
2023-01-20T09:17:49.375Z,74.89
2023-01-20T09:22:52.193Z,74.85
2023-01-20T09:27:56.410Z,74.73
2023-01-20T09:33:00.135Z,74.73
2023-01-20T09:38:20.555Z,74.41
2023-01-20T09:43:51.792Z,73.62
2023-01-20T09:49:21.002Z,72.41
2023-01-20T09:54:27.414Z,71.26
2023-01-20T09:59:41.161Z,71.22
2023-01-20T10:04:49.693Z,71.27
2023-01-20T10:09:59.500Z,71.66
2023-01-20T10:15:08.971Z,70.03
2023-01-20T10:20:22.613Z,69.60
2023-01-20T10:25:30.209Z,69.14
2023-01-20T10:30:37.790Z,69.18
2023-01-20T10:35:44.306Z,68.00
2023-01-20T10:40:53.512Z,67.09
2023-01-20T10:46:12.575Z,67.80
2023-01-20T10:51:25.767Z,67.13
2023-01-20T10:56:37.319Z,65.83
2023-01-20T11:01:42.575Z,67.10
2023-01-20T11:06:46.679Z,63.07
2023-01-20T11:11:49.512Z,58.72
2023-01-20T11:17:00.942Z,60.98
2023-01-20T11:22:11.963Z,58.31
2023-01-20T11:27:17.882Z,59.05
2023-01-20T11:32:42.900Z,59.03
2023-01-20T11:37:45.774Z,60.55
2023-01-20T11:42:49.898Z,61.44
2023-01-20T11:48:03.834Z,62.37
2023-01-20T11:53:17.744Z,62.32
2023-01-20T11:58:22.464Z,62.83
2023-01-20T12:03:52.087Z,60.27
2023-01-20T12:09:00.613Z,60.78
2023-01-20T12:14:28.554Z,61.42
2023-01-20T12:19:38.619Z,62.51
2023-01-20T12:25:05.323Z,62.94
2023-01-20T12:30:23.205Z,63.06
2023-01-20T12:35:35.078Z,61.62
2023-01-20T12:40:47.629Z,60.07
2023-01-20T12:45:57.872Z,59.28
2023-01-20T12:51:17.240Z,60.09
2023-01-20T12:56:30.107Z,60.17
2023-01-20T13:01:43.907Z,59.05
2023-01-20T13:07:04.229Z,59.18
2023-01-20T13:12:25.632Z,61.30
2023-01-20T13:17:36.050Z,61.94
2023-01-20T13:22:40.281Z,60.57
2023-01-20T13:27:45.021Z,59.51
2023-01-20T13:32:49.068Z,59.50
2023-01-20T13:37:56.351Z,59.52
2023-01-20T13:42:59.345Z,61.63
2023-01-20T13:48:18.003Z,62.16
2023-01-20T13:53:29.772Z,61.81
2023-01-20T13:58:44.211Z,63.59
2023-01-20T14:04:02.571Z,64.21
2023-01-20T14:09:19.793Z,63.57
2023-01-20T14:14:24.985Z,62.40
2023-01-20T14:19:32.427Z,61.03
2023-01-20T14:24:38.440Z,61.25
2023-01-20T14:29:41.209Z,60.78
2023-01-20T14:34:44.659Z,60.80
2023-01-20T14:39:51.552Z,60.82
2023-01-20T14:44:56.587Z,60.14
2023-01-20T14:49:59.469Z,60.99
2023-01-20T14:55:03.672Z,60.31
2023-01-20T15:00:20.446Z,60.44
2023-01-20T15:05:28.383Z,60.87
2023-01-20T15:10:32.665Z,60.96
2023-01-20T15:21:23.055Z,62.57
2023-01-20T15:26:29.585Z,62.68
2023-01-20T15:31:32.392Z,62.83
2023-01-20T15:36:36.913Z,63.33
2023-01-20T15:41:41.316Z,63.78
2023-01-20T15:46:44.080Z,64.40
2023-01-20T15:51:47.356Z,65.25
2023-01-20T15:56:51.482Z,66.39
2023-01-20T16:01:54.273Z,67.17
2023-01-20T16:06:57.005Z,67.52
2023-01-20T16:12:01.082Z,68.01
2023-01-20T16:17:03.877Z,68.52
2023-01-20T16:22:08.602Z,68.88
2023-01-20T16:27:19.260Z,69.16
2023-01-20T16:32:24.053Z,69.30
2023-01-20T16:37:26.851Z,69.29
2023-01-20T16:42:31.011Z,69.32
2023-01-20T16:47:33.866Z,69.06
2023-01-20T16:52:36.636Z,68.67
2023-01-20T16:57:40.810Z,68.87
2023-01-20T17:02:45.565Z,68.56
2023-01-20T17:07:48.314Z,68.36
2023-01-20T17:12:54.598Z,68.43
2023-01-20T17:17:59.825Z,68.57
2023-01-20T17:23:03.192Z,68.78
2023-01-20T17:28:07.394Z,69.18
2023-01-20T17:33:10.142Z,69.38
2023-01-20T17:38:12.969Z,69.25
2023-01-20T17:43:17.200Z,70.04
2023-01-20T17:48:20.025Z,70.55
2023-01-20T17:53:22.852Z,70.25
2023-01-20T17:58:27.019Z,71.23
2023-01-20T18:03:29.764Z,71.13
2023-01-20T18:08:32.620Z,71.57
2023-01-20T18:13:37.064Z,71.58
2023-01-20T18:18:40.196Z,71.56
2023-01-20T18:23:43.778Z,71.67
2023-01-20T18:28:47.970Z,71.88
2023-01-20T18:33:52.234Z,71.83
2023-01-20T18:38:57.078Z,72.40
2023-01-20T18:44:01.284Z,72.25
2023-01-20T18:49:05.164Z,72.23
2023-01-20T18:54:10.367Z,72.30
2023-01-20T18:59:15.553Z,72.35
2023-01-20T19:04:18.317Z,72.41
2023-01-20T19:09:21.166Z,72.73
2023-01-20T19:14:25.355Z,72.76
2023-01-20T19:19:28.044Z,72.82
2023-01-20T19:24:30.821Z,72.92
2023-01-20T19:29:35.019Z,72.84
2023-01-20T19:34:39.189Z,72.82
2023-01-20T19:39:41.979Z,72.53
2023-01-20T19:44:46.164Z,72.97
2023-01-20T19:49:48.943Z,72.50
2023-01-20T19:54:52.283Z,72.58
2023-01-20T19:59:56.430Z,72.93
2023-01-20T20:04:59.169Z,72.63
2023-01-20T20:10:02.031Z,72.69
2023-01-20T20:15:07.126Z,72.48
2023-01-20T20:20:11.303Z,72.75
2023-01-20T20:25:14.154Z,72.52
2023-01-20T20:30:19.206Z,72.85
2023-01-20T20:35:22.020Z,72.82
2023-01-20T20:40:25.221Z,72.77
2023-01-20T20:45:29.423Z,72.48
2023-01-20T20:50:32.510Z,72.74
2023-01-20T20:55:35.371Z,72.96
2023-01-20T21:00:39.612Z,72.63
2023-01-20T21:05:46.263Z,72.81
2023-01-20T21:10:49.106Z,73.01
2023-01-20T21:16:01.528Z,72.93
2023-01-20T21:21:06.392Z,72.97
2023-01-20T21:26:12.721Z,72.99
2023-01-20T21:31:19.124Z,73.18
2023-01-20T21:36:23.181Z,73.05
2023-01-20T21:41:26.082Z,73.14
2023-01-20T21:46:31.590Z,73.20
2023-01-20T21:51:51.909Z,73.26
2023-01-20T21:56:54.680Z,73.24
2023-01-20T22:01:58.905Z,73.03
2023-01-20T22:07:01.737Z,73.64
2023-01-20T22:12:05.033Z,73.28
2023-01-20T22:17:11.219Z,72.89
2023-01-20T22:22:15.298Z,72.88
2023-01-20T22:27:18.152Z,73.12
2023-01-20T22:32:22.260Z,72.76
2023-01-20T22:37:25.674Z,72.69
2023-01-20T22:42:28.542Z,73.22
2023-01-20T22:47:32.674Z,73.44
2023-01-20T22:52:35.455Z,73.36
2023-01-20T22:57:38.230Z,72.95
2023-01-20T23:02:42.381Z,73.50
2023-01-20T23:07:45.144Z,73.40
2023-01-20T23:12:47.909Z,73.29
2023-01-20T23:17:52.070Z,73.57
2023-01-20T23:22:54.942Z,72.73
2023-01-20T23:27:57.762Z,72.45
2023-01-20T23:33:01.939Z,72.94
2023-01-20T23:38:04.762Z,73.20
2023-01-20T23:43:07.525Z,73.38
2023-01-20T23:48:11.671Z,73.43
2023-01-20T23:53:14.500Z,72.69
2023-01-20T23:58:17.243Z,72.89
